createdAt,value
2022-08-24T00:02:07.516Z,80.60
2022-08-24T00:04:40.761Z,82.10
2022-08-24T00:07:21.405Z,83.60
2022-08-24T00:09:57.075Z,85.30
2022-08-24T00:12:26.244Z,84.10
2022-08-24T00:14:56.537Z,84.90
2022-08-24T00:17:25.515Z,84.20
2022-08-24T00:19:55.293Z,84.20
2022-08-24T00:22:23.809Z,83.90
2022-08-24T00:24:52.504Z,85.60
2022-08-24T00:27:21.159Z,87.20
2022-08-24T00:29:50.507Z,89.20
2022-08-24T00:32:20.438Z,89.70
2022-08-24T00:34:59.338Z,88.10
2022-08-24T00:37:29.074Z,87.60
2022-08-24T00:39:59.755Z,87.30
2022-08-24T00:42:28.003Z,87.50
2022-08-24T00:44:56.589Z,87.60
2022-08-24T00:47:31.632Z,88.60
2022-08-24T00:50:03.750Z,87.30
2022-08-24T00:52:37.036Z,87.40
2022-08-24T00:55:11.149Z,88.50
2022-08-24T00:57:42.861Z,92.00
2022-08-24T01:00:17.994Z,90.80
2022-08-24T01:02:52.209Z,90.40
2022-08-24T01:05:21.308Z,91.00
2022-08-24T01:07:50.666Z,89.70
2022-08-24T01:10:25.215Z,89.50
2022-08-24T01:13:00.319Z,88.60
2022-08-24T01:15:31.019Z,90.20
2022-08-24T01:18:19.289Z,90.70
2022-08-24T01:20:54.897Z,91.50
2022-08-24T01:23:37.765Z,89.20
2022-08-24T01:26:06.898Z,87.80
2022-08-24T01:28:37.098Z,86.70
2022-08-24T01:31:06.204Z,86.00
2022-08-24T01:33:36.037Z,85.90
2022-08-24T01:36:19.002Z,87.10
2022-08-24T01:38:50.247Z,87.60
2022-08-24T01:41:19.131Z,88.60
2022-08-24T01:43:47.992Z,89.20
2022-08-24T01:46:17.161Z,89.60
2022-08-24T01:48:45.636Z,89.90
2022-08-24T01:51:14.375Z,87.80
2022-08-24T01:53:42.799Z,87.30
2022-08-24T01:56:12.737Z,86.80
2022-08-24T01:58:44.170Z,86.90
2022-08-24T02:01:13.701Z,86.60
2022-08-24T02:03:42.270Z,87.70
2022-08-24T02:06:12.551Z,87.90
2022-08-24T02:08:42.085Z,90.90
2022-08-24T02:11:13.042Z,87.70
2022-08-24T02:13:43.590Z,86.00
2022-08-24T02:16:13.533Z,87.60
2022-08-24T02:18:42.252Z,87.00
2022-08-24T02:21:12.134Z,86.70
2022-08-24T02:23:42.397Z,87.90
2022-08-24T02:26:13.642Z,87.10
2022-08-24T02:28:44.561Z,86.70
2022-08-24T02:31:15.485Z,86.80
2022-08-24T02:33:46.676Z,86.50
2022-08-24T02:36:26.187Z,86.40
2022-08-24T02:38:59.990Z,90.80
2022-08-24T02:41:29.894Z,91.00
2022-08-24T02:43:59.094Z,89.50
2022-08-24T02:46:29.734Z,89.00
2022-08-24T02:49:11.277Z,87.50
2022-08-24T02:51:46.878Z,88.30
2022-08-24T02:54:20.181Z,88.90
2022-08-24T02:56:52.984Z,90.80
2022-08-24T02:59:22.586Z,89.90
2022-08-24T03:01:52.588Z,89.50
2022-08-24T03:04:22.961Z,90.10
2022-08-24T03:06:51.451Z,90.10
2022-08-24T03:09:20.499Z,90.70
2022-08-24T03:11:54.049Z,89.90
2022-08-24T03:14:23.264Z,89.80
2022-08-24T03:16:51.888Z,90.20
2022-08-24T03:19:20.560Z,90.70
2022-08-24T03:21:49.349Z,90.10
2022-08-24T03:24:18.029Z,89.90
2022-08-24T03:26:47.141Z,89.00
2022-08-24T03:29:17.793Z,89.70
2022-08-24T03:31:47.157Z,89.40
2022-08-24T03:34:16.571Z,89.30
2022-08-24T03:36:47.548Z,88.30
2022-08-24T03:39:18.032Z,88.00
2022-08-24T03:41:49.170Z,88.20
2022-08-24T03:44:23.088Z,89.80
2022-08-24T03:46:54.492Z,90.30
2022-08-24T03:49:25.129Z,90.40
2022-08-24T03:51:54.344Z,90.80
2022-08-24T03:54:25.316Z,91.90
2022-08-24T03:56:54.129Z,91.70
2022-08-24T03:59:24.076Z,91.70
2022-08-24T04:01:56.422Z,92.20
2022-08-24T04:04:27.235Z,92.00
2022-08-24T04:06:57.868Z,91.60
2022-08-24T04:09:29.502Z,91.40
2022-08-24T04:11:58.415Z,92.40
2022-08-24T04:14:29.680Z,91.80
2022-08-24T04:17:04.803Z,93.30
2022-08-24T04:19:57.483Z,92.40
2022-08-24T04:22:35.627Z,92.10
2022-08-24T04:25:09.589Z,91.90
2022-08-24T04:27:41.543Z,91.80
2022-08-24T04:30:14.475Z,92.70
2022-08-24T04:33:14.088Z,92.20
2022-08-24T04:35:47.620Z,91.70
2022-08-24T04:38:18.047Z,92.50
2022-08-24T04:41:00.433Z,91.50
2022-08-24T04:43:29.616Z,91.70
2022-08-24T04:46:01.243Z,91.80
2022-08-24T04:48:29.909Z,91.80
2022-08-24T04:51:02.868Z,91.30
2022-08-24T04:53:31.918Z,92.20
2022-08-24T04:56:01.835Z,92.20
2022-08-24T04:58:33.968Z,92.50
2022-08-24T05:01:08.717Z,91.60
2022-08-24T05:03:38.185Z,92.10
2022-08-24T05:06:07.236Z,92.10
2022-08-24T05:08:35.996Z,92.10
2022-08-24T05:11:06.944Z,91.70
2022-08-24T05:13:35.766Z,91.60
2022-08-24T05:16:09.948Z,92.60
2022-08-24T05:18:38.712Z,93.30
2022-08-24T05:21:09.722Z,93.60
2022-08-24T05:23:40.233Z,92.10
2022-08-24T05:26:17.811Z,92.30
2022-08-24T05:28:47.749Z,92.40
2022-08-24T05:31:20.803Z,92.70
2022-08-24T05:33:50.519Z,90.80
2022-08-24T05:36:23.577Z,91.10
2022-08-24T05:38:55.112Z,90.30
2022-08-24T05:41:25.025Z,91.10
2022-08-24T05:44:01.721Z,92.10
2022-08-24T05:46:38.263Z,91.10
2022-08-24T05:49:08.173Z,91.50
2022-08-24T05:51:37.716Z,91.60
2022-08-24T05:54:09.896Z,91.80
2022-08-24T05:56:50.833Z,91.20
2022-08-24T05:59:19.791Z,91.70
2022-08-24T06:01:51.147Z,92.00
2022-08-24T06:04:20.033Z,92.40
2022-08-24T06:06:49.992Z,93.60
2022-08-24T06:09:19.494Z,92.60
2022-08-24T06:11:49.305Z,92.20
2022-08-24T06:14:22.859Z,91.40
2022-08-24T06:17:00.231Z,91.80
2022-08-24T06:19:29.505Z,92.60
2022-08-24T06:21:58.985Z,91.80
2022-08-24T06:24:48.733Z,91.30
2022-08-24T06:27:22.373Z,92.10
2022-08-24T06:29:56.583Z,92.00
2022-08-24T06:32:46.823Z,93.00
2022-08-24T06:35:27.135Z,93.00
2022-08-24T06:37:57.426Z,93.00
2022-08-24T06:40:26.603Z,92.20
2022-08-24T06:42:55.932Z,92.40
2022-08-24T06:45:36.552Z,91.80
2022-08-24T06:48:06.515Z,92.10
2022-08-24T06:50:35.686Z,92.90
2022-08-24T06:53:04.523Z,92.20
2022-08-24T06:55:34.790Z,92.40
2022-08-24T06:58:03.647Z,91.90
2022-08-24T07:00:32.256Z,91.60
2022-08-24T07:03:01.968Z,91.40
2022-08-24T07:05:33.014Z,91.50
2022-08-24T07:08:42.181Z,90.90
2022-08-24T07:11:14.416Z,90.90
2022-08-24T07:13:43.796Z,92.00
2022-08-24T07:16:13.244Z,91.00
2022-08-24T07:18:49.462Z,90.90
2022-08-24T07:21:23.064Z,90.50
2022-08-24T07:23:56.770Z,88.90
2022-08-24T07:26:28.321Z,88.70
2022-08-24T07:29:05.438Z,88.50
2022-08-24T07:31:44.733Z,89.10
2022-08-24T07:34:34.654Z,88.30
2022-08-24T07:37:05.621Z,87.50
2022-08-24T07:39:36.029Z,86.90
2022-08-24T07:42:14.781Z,87.20
2022-08-24T07:44:47.602Z,87.90
2022-08-24T07:50:11.693Z,84.20
2022-08-24T07:52:44.847Z,83.50
2022-08-24T07:55:15.792Z,81.00
2022-08-24T07:57:46.139Z,79.20
2022-08-24T08:00:19.789Z,78.30
2022-08-24T08:02:54.103Z,76.90
2022-08-24T08:05:25.037Z,76.90
2022-08-24T08:07:56.716Z,76.10
2022-08-24T08:10:25.985Z,75.10
2022-08-24T08:12:55.414Z,75.30
2022-08-24T08:15:24.130Z,73.90
2022-08-24T08:18:01.060Z,73.10
2022-08-24T08:20:30.126Z,74.90
2022-08-24T08:23:18.276Z,72.00
2022-08-24T08:26:03.141Z,71.60
2022-08-24T08:28:45.972Z,72.40
2022-08-24T08:31:15.346Z,71.40
2022-08-24T08:33:43.912Z,71.90
2022-08-24T08:36:16.290Z,70.90
2022-08-24T08:38:52.301Z,70.50
2022-08-24T08:41:50.472Z,70.40
2022-08-24T08:44:39.897Z,70.40
2022-08-24T08:47:38.745Z,70.40
2022-08-24T08:50:14.904Z,71.00
2022-08-24T08:53:22.023Z,69.10
2022-08-24T08:56:03.797Z,70.10
2022-08-24T08:58:57.413Z,70.10
2022-08-24T09:01:46.488Z,71.30
2022-08-24T09:04:55.396Z,71.60
2022-08-24T09:07:40.322Z,71.40
2022-08-24T09:10:45.813Z,71.40
2022-08-24T09:13:32.271Z,71.20
2022-08-24T09:16:18.811Z,70.80
2022-08-24T09:19:26.425Z,70.20
2022-08-24T09:22:13.529Z,70.40
2022-08-24T09:25:06.134Z,70.30
2022-08-24T09:27:53.720Z,70.50
2022-08-24T09:30:26.258Z,70.20
2022-08-24T09:33:06.287Z,69.50
2022-08-24T09:35:45.988Z,69.50
2022-08-24T09:38:24.193Z,69.30
2022-08-24T09:41:13.170Z,69.40
2022-08-24T09:44:23.893Z,69.40
2022-08-24T09:47:23.491Z,69.50
2022-08-24T09:50:26.941Z,68.60
2022-08-24T09:53:28.320Z,68.50
2022-08-24T09:56:18.528Z,68.10
2022-08-24T09:59:01.672Z,68.00
2022-08-24T10:01:38.438Z,66.60
2022-08-24T10:04:23.717Z,66.50
2022-08-24T10:07:04.523Z,67.50
2022-08-24T10:09:47.487Z,66.70
2022-08-24T10:12:24.331Z,66.30
2022-08-24T10:15:00.551Z,65.90
2022-08-24T10:17:42.841Z,65.60
2022-08-24T10:20:24.545Z,66.30
2022-08-24T10:23:35.169Z,65.20
2022-08-24T10:26:20.999Z,65.70
2022-08-24T10:29:08.642Z,66.20
2022-08-24T10:31:48.618Z,65.80
2022-08-24T10:34:34.718Z,65.50
2022-08-24T10:37:21.121Z,65.20
2022-08-24T10:40:11.676Z,65.20
2022-08-24T10:43:43.456Z,64.80
2022-08-24T10:46:50.492Z,64.30
2022-08-24T10:50:04.087Z,63.40
2022-08-24T10:53:20.574Z,62.30
2022-08-24T10:56:01.289Z,62.00
2022-08-24T10:58:42.421Z,61.20
2022-08-24T11:01:34.020Z,60.30
2022-08-24T11:04:07.383Z,62.00
2022-08-24T11:06:38.799Z,62.70
2022-08-24T11:09:17.231Z,62.30
2022-08-24T11:11:50.549Z,61.00
2022-08-24T11:14:26.578Z,62.30
2022-08-24T11:16:57.878Z,62.20
2022-08-24T11:19:33.419Z,61.00
2022-08-24T11:22:07.533Z,61.90
2022-08-24T11:24:46.776Z,62.00
2022-08-24T11:27:26.222Z,60.80
2022-08-24T11:30:07.425Z,59.20
2022-08-24T11:32:42.019Z,59.70
2022-08-24T11:37:43.743Z,59.40
2022-08-24T11:40:15.705Z,58.90
2022-08-24T11:43:06.306Z,58.00
2022-08-24T11:45:42.009Z,58.30
2022-08-24T11:48:27.250Z,57.50
2022-08-24T11:51:03.350Z,58.20
2022-08-24T11:56:21.466Z,59.70
2022-08-24T11:59:06.344Z,59.20
2022-08-24T12:01:44.697Z,59.50
2022-08-24T12:04:35.336Z,59.50
2022-08-24T12:07:13.121Z,59.00
2022-08-24T12:09:56.990Z,58.50
2022-08-24T12:12:36.797Z,58.70
2022-08-24T12:15:12.782Z,58.60
2022-08-24T12:17:47.559Z,58.40
2022-08-24T12:20:31.850Z,57.50
2022-08-24T12:23:04.002Z,57.70
2022-08-24T12:25:53.939Z,57.50
2022-08-24T12:28:28.932Z,57.80
2022-08-24T12:31:04.596Z,57.70
2022-08-24T12:33:39.138Z,57.90
2022-08-24T12:36:19.319Z,58.40
2022-08-24T12:38:56.260Z,59.10
2022-08-24T12:41:32.519Z,58.40
2022-08-24T12:44:16.549Z,58.50
2022-08-24T12:46:53.202Z,57.70
2022-08-24T12:49:29.806Z,58.00
2022-08-24T12:52:21.570Z,59.50
2022-08-24T12:55:16.499Z,58.10
2022-08-24T12:57:59.763Z,57.90
2022-08-24T13:00:36.326Z,57.10
2022-08-24T13:03:07.355Z,56.90
2022-08-24T13:05:43.023Z,56.20
2022-08-24T13:08:15.557Z,56.30
2022-08-24T13:10:53.929Z,56.30
2022-08-24T13:16:07.172Z,55.70
2022-08-24T13:19:11.256Z,56.10
2022-08-24T13:21:44.358Z,55.80
2022-08-24T13:24:46.749Z,55.90
2022-08-24T13:28:01.424Z,56.30
2022-08-24T13:30:39.804Z,55.70
2022-08-24T13:33:13.166Z,55.00
2022-08-24T13:36:29.976Z,53.90
2022-08-24T13:39:31.459Z,53.80
2022-08-24T13:42:10.815Z,53.40
2022-08-24T13:45:09.597Z,53.00
2022-08-24T13:47:52.389Z,53.10
2022-08-24T13:50:37.908Z,53.10
2022-08-24T13:53:31.369Z,52.70
2022-08-24T13:56:23.769Z,52.90
2022-08-24T13:59:09.739Z,53.00
2022-08-24T14:01:59.901Z,53.50
2022-08-24T14:04:58.124Z,53.60
2022-08-24T14:07:31.556Z,53.60
2022-08-24T14:10:11.433Z,55.20
2022-08-24T14:12:58.950Z,55.60
2022-08-24T14:15:36.210Z,55.70
2022-08-24T14:18:10.624Z,55.70
2022-08-24T14:21:06.699Z,55.20
2022-08-24T14:23:50.087Z,55.30
2022-08-24T14:29:34.976Z,56.30
2022-08-24T14:35:17.963Z,57.50
2022-08-24T14:37:58.539Z,57.80
2022-08-24T14:40:35.186Z,57.70
2022-08-24T14:45:57.291Z,57.70
2022-08-24T14:48:36.003Z,58.30
2022-08-24T14:51:14.586Z,58.80
2022-08-24T14:54:01.938Z,59.40
2022-08-24T14:56:51.555Z,59.20
2022-08-24T15:02:44.512Z,58.40
2022-08-24T15:05:22.813Z,58.60
2022-08-24T15:07:59.150Z,57.80
2022-08-24T15:10:35.981Z,58.50
2022-08-24T15:15:57.731Z,58.70
2022-08-24T15:18:36.986Z,60.00
2022-08-24T15:21:19.249Z,60.20
2022-08-24T15:24:08.014Z,59.90
2022-08-24T15:26:58.052Z,60.50
2022-08-24T15:29:31.089Z,61.20
2022-08-24T15:32:05.460Z,61.60
2022-08-24T15:34:43.632Z,61.10
2022-08-24T15:37:15.852Z,61.10
2022-08-24T15:39:45.129Z,60.60
2022-08-24T15:42:16.573Z,59.70
2022-08-24T15:44:50.087Z,59.90
2022-08-24T15:47:27.711Z,60.30
2022-08-24T15:49:59.833Z,60.30
2022-08-24T15:52:43.370Z,61.50
2022-08-24T15:55:33.029Z,62.10
2022-08-24T15:58:25.003Z,63.60
2022-08-24T16:01:12.662Z,63.40
2022-08-24T16:03:50.332Z,64.00
2022-08-24T16:06:24.267Z,63.70
2022-08-24T16:09:01.796Z,63.70
2022-08-24T16:11:35.007Z,63.00
2022-08-24T16:14:05.285Z,62.40
2022-08-24T16:16:40.467Z,62.40
2022-08-24T16:19:24.426Z,62.10
2022-08-24T16:21:58.585Z,64.50
2022-08-24T16:24:37.137Z,64.10
2022-08-24T16:27:09.786Z,62.90
2022-08-24T16:29:50.301Z,63.50
2022-08-24T16:32:32.263Z,64.00
2022-08-24T16:35:20.813Z,64.40
2022-08-24T16:37:51.020Z,65.50
2022-08-24T16:40:20.798Z,66.60
2022-08-24T16:42:50.550Z,67.00
2022-08-24T16:45:24.755Z,67.20
2022-08-24T16:50:40.042Z,66.90
2022-08-24T16:53:10.634Z,67.00
2022-08-24T16:55:41.034Z,67.30
2022-08-24T16:58:10.676Z,66.90
2022-08-24T17:00:41.268Z,67.10
2022-08-24T17:03:14.342Z,67.10
2022-08-24T17:05:45.933Z,67.10
2022-08-24T17:08:16.224Z,67.30
2022-08-24T17:10:46.574Z,67.20
2022-08-24T17:13:33.106Z,67.30
2022-08-24T17:16:07.118Z,67.50
2022-08-24T17:18:36.522Z,67.60
2022-08-24T17:21:09.117Z,67.90
2022-08-24T17:23:39.089Z,68.30
2022-08-24T17:26:20.264Z,68.40
2022-08-24T17:28:54.503Z,68.70
2022-08-24T17:31:25.246Z,68.50
2022-08-24T17:33:54.580Z,68.60
2022-08-24T17:36:25.661Z,68.60
2022-08-24T17:39:00.280Z,68.80
2022-08-24T17:41:29.448Z,69.10
2022-08-24T17:43:58.473Z,69.10
2022-08-24T17:46:27.225Z,69.30
2022-08-24T17:48:58.207Z,69.50
2022-08-24T17:51:28.469Z,69.70
2022-08-24T17:53:57.329Z,69.80
2022-08-24T17:56:27.440Z,70.10
2022-08-24T17:59:28.261Z,70.40
2022-08-24T18:01:58.899Z,70.60
2022-08-24T18:04:30.018Z,70.50
2022-08-24T18:07:03.267Z,70.60
2022-08-24T18:09:37.217Z,70.70
2022-08-24T18:12:08.133Z,70.80
2022-08-24T18:14:38.019Z,70.70
2022-08-24T18:17:10.402Z,70.70
2022-08-24T18:19:40.748Z,70.70
2022-08-24T18:22:10.997Z,70.60
2022-08-24T18:24:40.997Z,70.70
2022-08-24T18:27:12.326Z,70.60
2022-08-24T18:29:45.414Z,70.60
2022-08-24T18:32:19.661Z,70.80
2022-08-24T18:34:52.535Z,70.70
2022-08-24T18:37:22.867Z,70.90
2022-08-24T18:39:52.355Z,70.90
2022-08-24T18:42:21.233Z,71.30
2022-08-24T18:44:49.877Z,71.30
2022-08-24T18:47:18.816Z,71.30
2022-08-24T18:49:47.321Z,71.30
2022-08-24T18:52:17.563Z,71.20
2022-08-24T18:54:50.057Z,71.20
2022-08-24T18:57:19.228Z,71.40
2022-08-24T18:59:48.006Z,71.70
2022-08-24T19:02:34.534Z,71.70
2022-08-24T19:05:06.560Z,71.80
2022-08-24T19:07:37.023Z,72.10
2022-08-24T19:10:10.285Z,72.30
2022-08-24T19:12:42.468Z,72.60
2022-08-24T19:15:29.356Z,73.00
2022-08-24T19:18:06.235Z,73.00
2022-08-24T19:20:35.398Z,73.40
2022-08-24T19:23:09.254Z,73.70
2022-08-24T19:25:41.798Z,73.80
2022-08-24T19:28:11.081Z,74.00
2022-08-24T19:30:40.945Z,74.50
2022-08-24T19:33:14.076Z,74.80
2022-08-24T19:35:43.718Z,75.20
2022-08-24T19:38:12.174Z,75.30
2022-08-24T19:40:47.407Z,75.50
2022-08-24T19:43:17.130Z,75.50
2022-08-24T19:46:07.848Z,75.30
2022-08-24T19:48:39.904Z,75.30
2022-08-24T19:51:11.661Z,75.60
2022-08-24T19:53:43.203Z,75.40
2022-08-24T19:56:13.074Z,75.60
2022-08-24T19:58:46.722Z,76.00
2022-08-24T20:01:19.904Z,76.80
2022-08-24T20:03:49.200Z,77.20
2022-08-24T20:06:21.486Z,77.70
2022-08-24T20:08:51.054Z,78.20
2022-08-24T20:11:25.355Z,78.60
2022-08-24T20:13:54.957Z,79.20
2022-08-24T20:16:25.510Z,79.40
2022-08-24T20:18:54.415Z,79.80
2022-08-24T20:21:26.113Z,80.30
2022-08-24T20:23:57.392Z,80.60
2022-08-24T20:26:27.907Z,81.00
2022-08-24T20:28:59.134Z,81.60
2022-08-24T20:31:28.956Z,82.00
2022-08-24T20:33:57.578Z,82.30
2022-08-24T20:36:28.866Z,82.20
2022-08-24T20:38:59.240Z,82.40
2022-08-24T20:41:29.987Z,82.60
2022-08-24T20:43:58.869Z,82.50
2022-08-24T20:46:28.105Z,82.50
2022-08-24T20:48:57.520Z,82.40
2022-08-24T20:51:29.717Z,82.30
2022-08-24T20:53:58.011Z,82.60
2022-08-24T20:56:33.473Z,82.40
2022-08-24T20:59:02.871Z,82.30
2022-08-24T21:01:32.111Z,82.70
2022-08-24T21:04:05.106Z,82.40
2022-08-24T21:06:35.428Z,82.30
2022-08-24T21:09:05.524Z,81.90
2022-08-24T21:11:36.031Z,82.30
2022-08-24T21:14:06.562Z,82.70
2022-08-24T21:16:36.218Z,83.00
2022-08-24T21:19:04.992Z,83.10
2022-08-24T21:21:34.133Z,83.30
2022-08-24T21:24:05.340Z,83.80
2022-08-24T21:26:36.085Z,83.60
2022-08-24T21:29:06.898Z,83.90
2022-08-24T21:31:35.885Z,83.80
2022-08-24T21:34:22.094Z,84.90
2022-08-24T21:36:52.686Z,84.90
2022-08-24T21:39:23.237Z,84.50
2022-08-24T21:41:54.502Z,84.70
2022-08-24T21:44:23.668Z,84.90
2022-08-24T21:46:53.315Z,85.70
2022-08-24T21:49:21.997Z,85.20
2022-08-24T21:51:50.954Z,85.30
2022-08-24T21:54:19.284Z,85.20
2022-08-24T21:56:48.419Z,86.30
2022-08-24T21:59:18.084Z,85.80
2022-08-24T22:01:46.994Z,85.90
2022-08-24T22:04:15.476Z,85.90
2022-08-24T22:06:44.248Z,87.00
2022-08-24T22:09:12.607Z,87.90
2022-08-24T22:11:42.603Z,89.20
2022-08-24T22:14:11.193Z,88.20
2022-08-24T22:16:41.551Z,88.00
2022-08-24T22:19:10.192Z,88.00
2022-08-24T22:21:45.894Z,88.20
2022-08-24T22:24:16.719Z,89.10
2022-08-24T22:26:45.309Z,89.50
2022-08-24T22:29:14.486Z,89.70
2022-08-24T22:31:45.222Z,90.00
2022-08-24T22:34:19.646Z,90.40
2022-08-24T22:36:49.993Z,90.40
2022-08-24T22:39:18.759Z,91.00
2022-08-24T22:41:47.237Z,91.40
2022-08-24T22:44:21.972Z,91.50
2022-08-24T22:46:54.137Z,91.50
2022-08-24T22:49:25.084Z,91.90
2022-08-24T22:51:53.587Z,92.00
2022-08-24T22:54:23.088Z,92.40
2022-08-24T22:56:53.404Z,92.70
2022-08-24T22:59:23.245Z,92.70
2022-08-24T23:01:55.397Z,92.90
2022-08-24T23:04:26.435Z,93.50
2022-08-24T23:06:55.477Z,93.80
2022-08-24T23:09:24.557Z,94.10
2022-08-24T23:11:53.255Z,93.90
2022-08-24T23:14:23.076Z,94.10
2022-08-24T23:16:53.728Z,94.90
2022-08-24T23:19:40.390Z,94.70
2022-08-24T23:22:11.637Z,94.70
2022-08-24T23:24:41.682Z,95.10
2022-08-24T23:27:12.090Z,94.70
2022-08-24T23:29:40.938Z,94.50
2022-08-24T23:32:10.771Z,95.00
2022-08-24T23:34:39.413Z,94.70
2022-08-24T23:37:08.733Z,95.60
2022-08-24T23:39:38.229Z,96.00
2022-08-24T23:42:07.233Z,95.60
2022-08-24T23:44:36.229Z,95.10
2022-08-24T23:47:05.381Z,95.50
2022-08-24T23:49:35.885Z,95.40
2022-08-24T23:52:05.642Z,95.90
2022-08-24T23:54:35.165Z,96.90
2022-08-24T23:57:08.586Z,97.00
2022-08-24T23:59:37.709Z,97.80
